Time;durP1;ratioP1;P1;durP2;ratioP2;P2;SDS_P1;SDS_P2;PMS_P1;PMS_P2;Temp;Humidity;BMP_temperature;BMP_pressure;BME280_temperature;BME280_humidity;BME280_pressure;Samples;Min_cycle;Max_cycle;Signal;HPM_P1;HPM_P2
2024/02/14 00:01:54;;;;;;;10.52;3.65;;;1.60;99.90;;;;;;5103392;28;20020;-71
2024/02/14 00:04:21;;;;;;;10.05;4.22;;;1.60;99.90;;;;;;5094940;28;20032;-71
2024/02/14 00:06:47;;;;;;;9.35;4.20;;;1.60;99.90;;;;;;5101656;28;20133;-71
2024/02/14 00:09:12;;;;;;;8.93;3.88;;;1.60;99.90;;;;;;5102323;28;20024;-70
2024/02/14 00:11:38;;;;;;;10.15;4.13;;;1.60;99.90;;;;;;5100672;28;20073;-71
2024/02/14 00:14:03;;;;;;;6.13;3.90;;;1.60;99.90;;;;;;5096567;28;20035;-71
2024/02/14 00:16:32;;;;;;;10.57;3.88;;;1.60;99.90;;;;;;5111779;28;20194;-71
2024/02/14 00:18:58;;;;;;;8.85;5.57;;;1.60;99.90;;;;;;5114374;28;20072;-71
2024/02/14 00:21:24;;;;;;;11.45;4.53;;;1.60;99.90;;;;;;5120748;27;20023;-71
2024/02/14 00:23:50;;;;;;;10.25;4.68;;;1.60;99.90;;;;;;5113481;27;20058;-71
2024/02/14 00:26:16;;;;;;;12.32;4.55;;;1.60;99.90;;;;;;5109116;28;20028;-71
2024/02/14 00:28:42;;;;;;;13.02;5.20;;;1.60;99.90;;;;;;5113262;28;20032;-71
2024/02/14 00:31:07;;;;;;;8.30;4.55;;;1.50;99.90;;;;;;5103414;28;20028;-71
2024/02/14 00:33:33;;;;;;;9.38;4.57;;;1.60;99.90;;;;;;5108575;28;20031;-71
2024/02/14 00:35:59;;;;;;;6.60;3.70;;;1.70;99.90;;;;;;5099352;28;20023;-72
2024/02/14 00:38:24;;;;;;;11.68;4.88;;;1.80;99.90;;;;;;5115138;28;20032;-71
2024/02/14 00:40:50;;;;;;;9.63;4.22;;;1.90;99.90;;;;;;5113804;28;20031;-70
2024/02/14 00:43:15;;;;;;;11.85;4.68;;;2.00;99.90;;;;;;5104390;28;20024;-71
2024/02/14 00:45:41;;;;;;;9.80;4.22;;;2.00;99.90;;;;;;5095046;28;20031;-70
2024/02/14 00:48:07;;;;;;;7.07;4.30;;;2.10;99.90;;;;;;5101646;28;20107;-71
2024/02/14 00:50:33;;;;;;;6.50;3.90;;;2.10;99.90;;;;;;5107972;28;20106;-71
2024/02/14 00:53:00;;;;;;;7.82;4.32;;;2.20;99.90;;;;;;5114338;27;20123;-70
2024/02/14 00:55:26;;;;;;;8.52;4.32;;;2.30;99.90;;;;;;5101847;28;20040;-71
2024/02/14 00:57:51;;;;;;;9.77;4.25;;;2.30;99.90;;;;;;5114015;28;20048;-71
2024/02/14 01:00:17;;;;;;;9.18;4.72;;;2.40;99.90;;;;;;5104850;28;20138;-71
2024/02/14 01:02:43;;;;;;;9.32;3.83;;;2.50;99.90;;;;;;5113121;28;20023;-71
2024/02/14 01:05:09;;;;;;;11.73;4.28;;;2.60;99.90;;;;;;5101735;28;20055;-71
2024/02/14 01:07:35;;;;;;;7.18;4.30;;;2.60;99.90;;;;;;5108289;28;20107;-70
2024/02/14 01:10:01;;;;;;;10.15;4.50;;;2.70;99.90;;;;;;5095502;28;20030;-72
2024/02/14 01:12:29;;;;;;;8.30;4.07;;;2.80;99.90;;;;;;5104122;28;20024;-71
2024/02/14 01:14:55;;;;;;;8.15;4.38;;;2.90;99.90;;;;;;5113771;28;20024;-71
2024/02/14 01:17:21;;;;;;;13.32;4.80;;;2.90;99.90;;;;;;5109136;28;20095;-71
2024/02/14 01:19:46;;;;;;;7.97;4.32;;;3.00;99.90;;;;;;5093547;28;20205;-71
2024/02/14 01:22:16;;;;;;;5.88;3.60;;;3.00;99.90;;;;;;5113225;27;20443;-71
2024/02/14 01:24:42;;;;;;;8.27;4.63;;;3.00;99.90;;;;;;5102344;27;20158;-72
2024/02/14 01:27:08;;;;;;;8.73;4.32;;;3.00;99.90;;;;;;5065916;28;20038;-71
2024/02/14 01:29:34;;;;;;;9.93;4.63;;;3.00;99.90;;;;;;5080987;28;20451;-71
2024/02/14 01:32:00;;;;;;;8.68;4.57;;;3.10;99.90;;;;;;5079488;28;20091;-71
2024/02/14 01:34:25;;;;;;;7.45;4.07;;;3.10;99.90;;;;;;5090836;28;20114;-70
2024/02/14 01:36:51;;;;;;;7.57;3.38;;;3.20;99.90;;;;;;5079268;28;20078;-71
2024/02/14 01:39:17;;;;;;;8.93;2.90;;;3.30;99.90;;;;;;5088972;28;20024;-72
2024/02/14 01:41:48;;;;;;;6.28;2.60;;;3.40;99.90;;;;;;5085182;28;20062;-72
2024/02/14 01:44:15;;;;;;;7.95;3.17;;;3.50;99.90;;;;;;5091888;28;20385;-72
2024/02/14 01:46:41;;;;;;;6.88;2.90;;;3.60;99.90;;;;;;5079228;28;20108;-71
2024/02/14 01:49:08;;;;;;;4.13;2.28;;;3.80;99.90;;;;;;5082104;28;20097;-71
2024/02/14 01:51:35;;;;;;;4.45;2.05;;;3.90;99.90;;;;;;5080814;28;20082;-71
2024/02/14 01:54:03;;;;;;;4.90;2.00;;;4.00;99.90;;;;;;5085055;28;20504;-71
2024/02/14 01:56:30;;;;;;;4.80;2.00;;;4.10;99.90;;;;;;5090830;28;20059;-71
2024/02/14 01:58:56;;;;;;;4.38;1.83;;;4.20;99.90;;;;;;5083719;28;20066;-71
2024/02/14 02:01:23;;;;;;;3.95;1.75;;;4.40;99.90;;;;;;5084982;28;20428;-73
2024/02/14 02:03:49;;;;;;;3.70;1.70;;;4.50;99.90;;;;;;5072333;28;20063;-70
2024/02/14 02:06:15;;;;;;;5.38;2.15;;;4.60;99.90;;;;;;5093059;28;20507;-71
2024/02/14 02:08:43;;;;;;;4.55;1.85;;;4.80;99.90;;;;;;5078051;28;20104;-70
2024/02/14 02:11:09;;;;;;;5.97;2.08;;;4.90;99.90;;;;;;5091909;28;20024;-69
2024/02/14 02:13:35;;;;;;;4.53;2.05;;;5.00;99.90;;;;;;5077376;28;20034;-69
2024/02/14 02:16:04;;;;;;;6.88;2.40;;;5.00;99.90;;;;;;5092036;28;20386;-70
2024/02/14 02:18:30;;;;;;;3.90;2.05;;;5.10;99.90;;;;;;5085265;28;20024;-69
2024/02/14 02:20:56;;;;;;;5.45;2.22;;;5.10;99.90;;;;;;5064366;28;20032;-70
2024/02/14 02:23:28;;;;;;;4.43;1.88;;;5.20;99.90;;;;;;5083677;28;20070;-72
2024/02/14 02:25:54;;;;;;;4.68;1.92;;;5.30;99.90;;;;;;5109238;27;20043;-69
2024/02/14 02:28:19;;;;;;;6.90;2.75;;;5.30;99.90;;;;;;5106337;28;20027;-70
2024/02/14 02:30:46;;;;;;;11.82;3.20;;;5.40;99.90;;;;;;5107055;28;20028;-70
2024/02/14 02:33:12;;;;;;;7.97;4.20;;;5.50;99.90;;;;;;5105252;28;20508;-70
2024/02/14 02:35:39;;;;;;;10.85;4.97;;;5.50;99.90;;;;;;5107055;28;20025;-70
2024/02/14 02:38:05;;;;;;;8.32;5.18;;;5.40;99.90;;;;;;5108002;28;20110;-70
2024/02/14 02:40:30;;;;;;;11.35;4.80;;;5.40;99.90;;;;;;5104461;28;20102;-70
2024/02/14 02:42:56;;;;;;;11.93;5.60;;;5.30;99.90;;;;;;5108331;27;20405;-71
2024/02/14 02:45:22;;;;;;;13.30;5.20;;;5.20;99.90;;;;;;5110673;28;20106;-71
2024/02/14 02:47:47;;;;;;;10.05;4.85;;;5.20;99.90;;;;;;5105379;28;20020;-70
2024/02/14 02:50:13;;;;;;;10.80;4.53;;;5.10;99.90;;;;;;5108221;28;20079;-70
2024/02/14 02:52:40;;;;;;;9.57;4.20;;;5.00;99.90;;;;;;5107793;28;20123;-70
2024/02/14 02:55:06;;;;;;;11.45;4.50;;;5.00;99.90;;;;;;5095076;28;20031;-71
2024/02/14 02:57:33;;;;;;;12.50;4.78;;;5.00;99.90;;;;;;5094358;28;20530;-70
2024/02/14 02:59:59;;;;;;;10.63;4.75;;;4.90;99.90;;;;;;5110210;28;20094;-71
2024/02/14 03:02:25;;;;;;;10.63;4.47;;;4.90;99.90;;;;;;5104151;28;20575;-70
2024/02/14 03:04:52;;;;;;;10.90;4.20;;;4.90;99.90;;;;;;5110025;28;20027;-71
2024/02/14 03:07:19;;;;;;;9.13;2.90;;;4.80;99.90;;;;;;5111591;28;20468;-70
2024/02/14 03:09:45;;;;;;;8.98;3.10;;;4.80;99.90;;;;;;5109783;28;20025;-70
2024/02/14 03:12:10;;;;;;;9.88;4.13;;;4.80;99.90;;;;;;5111130;28;20028;-70
2024/02/14 03:14:36;;;;;;;11.85;4.70;;;4.80;99.90;;;;;;5105281;27;20084;-70
2024/02/14 03:17:05;;;;;;;10.98;5.57;;;4.90;99.90;;;;;;5111905;27;20076;-70
2024/02/14 03:19:30;;;;;;;14.48;6.18;;;4.80;99.90;;;;;;5106935;28;20054;-71
2024/02/14 03:22:47;;;;;;;9.20;5.40;;;4.90;99.90;;;;;;5108464;27;20456;-71
2024/02/14 03:25:20;;;;;;;10.43;5.78;;;4.70;99.90;;;;;;5095451;27;20178;-71
2024/02/14 03:27:53;;;;;;;12.07;5.30;;;4.50;99.90;;;;;;5090088;28;20178;-71
2024/02/14 03:30:20;;;;;;;12.23;5.63;;;4.30;99.90;;;;;;5088403;28;20237;-71
2024/02/14 03:32:49;;;;;;;10.73;5.20;;;4.20;99.90;;;;;;5090086;28;20367;-70
2024/02/14 03:35:16;;;;;;;10.90;4.97;;;4.10;99.90;;;;;;5089789;28;20035;-71
2024/02/14 03:37:43;;;;;;;11.05;4.63;;;4.00;99.90;;;;;;5091788;28;20508;-70
2024/02/14 03:40:09;;;;;;;11.65;5.13;;;4.00;99.90;;;;;;5091329;28;20042;-71
2024/02/14 03:42:35;;;;;;;10.90;4.90;;;3.90;99.90;;;;;;5092445;28;20020;-71
2024/02/14 03:45:05;;;;;;;9.65;3.70;;;3.90;99.90;;;;;;5091467;28;20059;-71
2024/02/14 03:47:34;;;;;;;7.65;3.42;;;3.90;99.90;;;;;;5090061;28;20028;-71
2024/02/14 03:50:02;;;;;;;8.52;3.13;;;4.00;99.90;;;;;;5090182;28;20054;-71
2024/02/14 03:52:27;;;;;;;8.52;2.83;;;4.10;99.90;;;;;;5093290;28;20031;-70
2024/02/14 03:54:53;;;;;;;8.38;2.78;;;4.20;99.90;;;;;;5093685;28;20028;-69
2024/02/14 03:57:18;;;;;;;7.18;2.80;;;4.30;99.90;;;;;;5095218;28;20376;-70
2024/02/14 03:59:45;;;;;;;6.82;2.50;;;4.40;99.90;;;;;;5093512;28;20028;-70
2024/02/14 04:02:10;;;;;;;6.53;2.22;;;4.50;99.90;;;;;;5094410;28;20020;-70
2024/02/14 04:04:37;;;;;;;6.13;2.20;;;4.60;99.90;;;;;;5093324;28;20036;-70
2024/02/14 04:07:03;;;;;;;3.75;1.83;;;4.80;99.90;;;;;;5094467;28;20036;-70
2024/02/14 04:09:29;;;;;;;5.28;1.70;;;4.90;99.90;;;;;;5093436;28;20028;-70
2024/02/14 04:11:55;;;;;;;3.22;1.70;;;5.00;99.90;;;;;;5094460;28;20028;-70
2024/02/14 04:14:21;;;;;;;4.88;2.30;;;5.20;99.90;;;;;;5094190;28;20028;-70
2024/02/14 04:16:46;;;;;;;5.82;2.08;;;5.40;99.90;;;;;;5093540;28;20522;-70
2024/02/14 04:19:12;;;;;;;4.38;1.58;;;5.60;99.90;;;;;;5094053;28;20420;-70
2024/02/14 04:21:38;;;;;;;4.70;1.75;;;5.70;99.90;;;;;;5093321;28;20016;-70
2024/02/14 04:24:04;;;;;;;4.28;1.60;;;5.80;99.90;;;;;;5096427;27;20166;-69
2024/02/14 04:26:30;;;;;;;5.20;1.52;;;5.90;99.90;;;;;;5105146;28;20030;-70
2024/02/14 04:28:55;;;;;;;4.10;1.85;;;6.00;99.90;;;;;;5109570;28;20107;-70
2024/02/14 04:31:21;;;;;;;4.50;1.75;;;6.10;99.90;;;;;;5114463;28;20106;-70
2024/02/14 04:33:51;;;;;;;4.05;1.85;;;6.10;99.90;;;;;;5113113;28;20020;-70
2024/02/14 04:36:20;;;;;;;;;;;6.10;99.90;;;;;;5107073;28;20024;-70
2024/02/14 04:38:49;;;;;;;3.28;1.80;;;6.20;99.90;;;;;;5113386;28;20004;-71
2024/02/14 04:41:15;;;;;;;3.25;1.50;;;6.20;99.90;;;;;;5110711;28;20143;-71
2024/02/14 04:43:40;;;;;;;6.95;1.98;;;6.10;99.90;;;;;;5105565;28;20052;-71
2024/02/14 04:46:07;;;;;;;7.15;2.25;;;6.10;99.90;;;;;;5100940;28;20043;-71
2024/02/14 04:48:33;;;;;;;4.82;1.88;;;6.10;99.90;;;;;;5113279;28;20019;-71
2024/02/14 04:50:59;;;;;;;4.20;1.60;;;6.10;99.90;;;;;;5108761;28;20372;-71
2024/02/14 04:53:25;;;;;;;3.90;1.88;;;6.10;99.90;;;;;;5105573;28;20035;-71
2024/02/14 04:55:50;;;;;;;6.38;1.70;;;6.10;99.90;;;;;;5109843;28;20020;-71
2024/02/14 04:58:16;;;;;;;6.15;2.03;;;6.20;99.90;;;;;;5114285;28;20028;-71
2024/02/14 05:00:42;;;;;;;6.15;2.20;;;6.20;99.90;;;;;;5112633;28;20051;-71
2024/02/14 05:03:09;;;;;;;6.40;2.10;;;6.20;99.90;;;;;;5111339;28;20031;-71
2024/02/14 05:05:35;;;;;;;4.80;2.28;;;6.30;99.90;;;;;;5110563;28;20032;-71
2024/02/14 05:08:02;;;;;;;8.63;2.53;;;6.40;99.90;;;;;;5112879;28;20027;-71
2024/02/14 05:10:28;;;;;;;4.72;2.10;;;6.40;99.90;;;;;;5112999;28;20024;-71
2024/02/14 05:12:54;;;;;;;3.58;1.92;;;6.50;99.90;;;;;;5114158;28;20080;-71
2024/02/14 05:15:19;;;;;;;4.68;1.90;;;6.50;99.90;;;;;;5110732;28;20110;-71
2024/02/14 05:17:45;;;;;;;5.95;2.30;;;6.50;99.90;;;;;;5109516;28;20035;-71
2024/02/14 05:20:11;;;;;;;5.03;1.83;;;6.40;99.90;;;;;;5100873;28;20016;-71
2024/02/14 05:22:38;;;;;;;4.53;1.92;;;6.40;99.90;;;;;;5118970;27;20084;-71
2024/02/14 05:25:04;;;;;;;5.88;1.95;;;6.50;99.90;;;;;;5100354;28;20126;-70
2024/02/14 05:27:33;;;;;;;4.90;2.22;;;6.50;99.90;;;;;;5112970;28;20024;-70
2024/02/14 05:29:59;;;;;;;7.05;2.75;;;6.50;99.90;;;;;;5113008;28;20032;-71
2024/02/14 05:32:24;;;;;;;4.75;2.05;;;6.50;99.90;;;;;;5104512;28;20028;-71
2024/02/14 05:34:54;;;;;;;7.03;2.90;;;6.50;99.90;;;;;;5102586;28;20102;-70
2024/02/14 05:37:19;;;;;;;3.65;1.98;;;6.50;99.90;;;;;;5113282;28;20107;-71
2024/02/14 05:39:45;;;;;;;6.35;2.25;;;6.40;99.90;;;;;;5112279;28;20103;-70
2024/02/14 05:42:11;;;;;;;6.30;2.15;;;6.40;99.90;;;;;;5113242;28;20030;-70
2024/02/14 05:44:37;;;;;;;6.05;2.45;;;6.30;99.90;;;;;;5111890;28;20033;-71
2024/02/14 05:47:03;;;;;;;3.78;1.85;;;6.30;99.90;;;;;;5113094;28;20034;-71
2024/02/14 05:49:28;;;;;;;4.97;2.15;;;6.30;99.90;;;;;;5108331;28;20027;-71
2024/02/14 05:51:54;;;;;;;7.57;2.30;;;6.30;99.90;;;;;;5106467;28;20077;-71
2024/02/14 05:54:19;;;;;;;9.25;2.72;;;6.30;99.90;;;;;;5112505;28;20023;-71
2024/02/14 05:56:46;;;;;;;6.55;2.67;;;6.20;99.90;;;;;;5111953;28;20029;-71
2024/02/14 05:59:11;;;;;;;7.55;3.00;;;6.20;99.90;;;;;;5112164;28;20491;-71
2024/02/14 06:01:37;;;;;;;9.38;2.85;;;6.20;99.90;;;;;;5112114;28;20032;-71
2024/02/14 06:04:03;;;;;;;6.30;2.80;;;6.20;99.90;;;;;;5110278;28;20059;-70
2024/02/14 06:06:29;;;;;;;5.63;2.80;;;6.10;99.90;;;;;;5111746;28;20028;-70
2024/02/14 06:08:55;;;;;;;5.43;2.70;;;6.10;99.90;;;;;;5112160;28;20058;-70
2024/02/14 06:11:21;;;;;;;7.53;2.70;;;6.00;99.90;;;;;;5113186;28;20027;-68
2024/02/14 06:13:48;;;;;;;6.70;3.22;;;6.00;99.90;;;;;;5079174;28;20034;-70
2024/02/14 06:16:13;;;;;;;11.13;4.20;;;5.90;99.90;;;;;;5112422;28;20133;-70
2024/02/14 06:18:40;;;;;;;8.27;3.00;;;5.90;99.90;;;;;;5111122;28;20131;-71
2024/02/14 06:21:06;;;;;;;5.57;2.20;;;5.90;99.90;;;;;;5112393;28;20103;-70
2024/02/14 06:23:31;;;;;;;7.82;2.90;;;5.80;99.90;;;;;;5108372;28;20490;-70
2024/02/14 06:25:58;;;;;;;9.00;2.72;;;5.80;99.90;;;;;;5104998;27;20127;-70
2024/02/14 06:28:24;;;;;;;4.90;2.80;;;5.70;99.90;;;;;;5101071;28;20039;-71
2024/02/14 06:30:49;;;;;;;5.80;2.75;;;5.70;99.90;;;;;;5091227;28;20024;-71
2024/02/14 06:33:15;;;;;;;3.83;2.58;;;5.70;99.90;;;;;;5102923;28;20031;-70
2024/02/14 06:35:40;;;;;;;5.32;2.85;;;5.70;99.90;;;;;;5090544;28;20028;-70
2024/02/14 06:38:06;;;;;;;7.78;2.65;;;5.60;99.90;;;;;;5091645;28;20048;-71
2024/02/14 06:40:32;;;;;;;6.20;3.03;;;5.70;99.90;;;;;;5090262;28;20024;-70
2024/02/14 06:42:59;;;;;;;8.15;2.97;;;5.70;99.90;;;;;;5094669;28;20082;-70
2024/02/14 06:45:26;;;;;;;5.22;2.55;;;5.70;99.90;;;;;;5090964;28;20032;-70
2024/02/14 06:47:51;;;;;;;9.63;2.97;;;5.70;99.90;;;;;;5090763;28;20444;-70
2024/02/14 06:50:17;;;;;;;5.70;2.58;;;5.80;99.90;;;;;;5095562;28;20023;-70
2024/02/14 06:52:42;;;;;;;9.25;3.53;;;5.80;99.90;;;;;;5099505;28;20425;-70
2024/02/14 06:55:08;;;;;;;7.57;3.05;;;5.80;99.90;;;;;;5090538;28;20048;-70
2024/02/14 06:57:34;;;;;;;6.95;2.88;;;5.80;99.90;;;;;;5090550;28;20031;-70
2024/02/14 06:59:59;;;;;;;7.80;3.50;;;5.90;99.90;;;;;;5099957;28;20085;-70
2024/02/14 07:02:27;;;;;;;7.90;3.47;;;6.10;99.90;;;;;;5093151;28;20392;-70
2024/02/14 07:04:54;;;;;;;6.03;3.28;;;6.10;99.90;;;;;;5072424;28;20059;-70
2024/02/14 07:07:20;;;;;;;8.20;4.03;;;6.10;99.90;;;;;;5090940;28;20032;-70
2024/02/14 07:09:45;;;;;;;6.80;3.50;;;6.00;99.90;;;;;;5089900;28;20093;-71
2024/02/14 07:12:11;;;;;;;8.13;3.75;;;6.10;99.90;;;;;;5091000;28;20098;-70
2024/02/14 07:14:36;;;;;;;7.25;3.17;;;6.00;99.90;;;;;;5089760;28;20024;-71
2024/02/14 07:17:03;;;;;;;8.45;2.92;;;6.00;99.90;;;;;;5090538;28;20031;-71
2024/02/14 07:19:28;;;;;;;10.38;3.35;;;6.00;99.90;;;;;;5094482;28;20024;-71
2024/02/14 07:21:54;;;;;;;6.20;2.90;;;6.00;99.90;;;;;;5089726;28;20024;-71
2024/02/14 07:24:19;;;;;;;3.90;2.33;;;6.10;99.90;;;;;;5096092;28;20067;-71
2024/02/14 07:26:45;;;;;;;7.22;3.10;;;6.20;99.90;;;;;;5100175;28;20055;-70
2024/02/14 07:29:11;;;;;;;4.43;2.20;;;6.30;99.90;;;;;;5090221;28;20027;-71
2024/02/14 07:31:37;;;;;;;4.20;1.60;;;6.30;99.90;;;;;;5089568;28;20036;-71
2024/02/14 07:34:03;;;;;;;5.30;1.73;;;6.50;99.90;;;;;;5092031;28;20422;-71
2024/02/14 07:36:29;;;;;;;4.70;1.40;;;6.70;99.90;;;;;;5098699;28;20499;-71
2024/02/14 07:38:55;;;;;;;5.13;1.77;;;6.80;99.90;;;;;;5090618;28;20024;-71
2024/02/14 07:41:20;;;;;;;3.22;1.60;;;7.00;99.90;;;;;;5100859;28;20020;-71
2024/02/14 07:43:46;;;;;;;4.03;2.00;;;7.00;99.90;;;;;;5096257;28;20522;-71
2024/02/14 07:46:17;;;;;;;4.25;1.63;;;7.00;99.90;;;;;;5087174;28;20035;-70
2024/02/14 07:48:43;;;;;;;3.58;1.88;;;7.20;99.90;;;;;;5097313;28;20031;-71
2024/02/14 07:51:08;;;;;;;3.72;1.83;;;7.30;99.90;;;;;;5093837;28;20424;-70
2024/02/14 07:53:34;;;;;;;4.53;1.88;;;7.50;99.90;;;;;;5093464;28;20544;-70
2024/02/14 07:55:59;;;;;;;7.35;3.13;;;7.50;99.90;;;;;;5093840;28;20035;-71
2024/02/14 07:58:25;;;;;;;6.75;3.40;;;7.60;99.90;;;;;;5106415;28;20022;-71
2024/02/14 08:00:50;;;;;;;7.32;3.88;;;7.70;99.90;;;;;;5099383;28;20473;-70
2024/02/14 08:03:16;;;;;;;4.97;3.08;;;7.70;99.90;;;;;;5092220;28;20028;-70
2024/02/14 08:05:42;;;;;;;7.65;4.05;;;7.60;99.90;;;;;;5089423;28;20028;-71
2024/02/14 08:08:08;;;;;;;6.85;3.45;;;7.60;99.90;;;;;;5103286;28;20027;-71
2024/02/14 08:10:34;;;;;;;5.40;3.28;;;7.60;99.90;;;;;;5098063;28;20448;-71
2024/02/14 08:13:01;;;;;;;9.82;3.45;;;7.60;99.90;;;;;;5091619;28;20024;-71
2024/02/14 08:15:26;;;;;;;5.75;3.00;;;7.60;99.90;;;;;;5101430;28;20024;-71
2024/02/14 08:17:55;;;;;;;5.57;2.60;;;7.60;99.90;;;;;;5099273;28;20101;-70
2024/02/14 08:20:21;;;;;;;9.10;2.97;;;7.70;99.90;;;;;;5091359;28;20473;-70
2024/02/14 08:22:47;;;;;;;5.85;2.75;;;7.70;99.90;;;;;;5097633;28;20059;-70
2024/02/14 08:25:12;;;;;;;5.32;2.55;;;7.80;99.90;;;;;;5090421;28;20412;-71
2024/02/14 08:27:38;;;;;;;5.72;2.95;;;7.80;99.90;;;;;;5077945;28;20107;-71
2024/02/14 08:30:06;;;;;;;7.65;2.90;;;7.90;99.90;;;;;;5075995;28;20052;-71
2024/02/14 08:32:33;;;;;;;4.88;2.80;;;7.90;99.90;;;;;;5083372;28;20104;-71
2024/02/14 08:34:58;;;;;;;7.13;2.70;;;7.90;99.90;;;;;;5071416;28;20028;-71
2024/02/14 08:37:24;;;;;;;5.70;2.67;;;8.00;99.90;;;;;;5082767;28;20028;-71
2024/02/14 08:39:50;;;;;;;6.00;2.60;;;8.00;99.90;;;;;;5087933;28;20065;-70
2024/02/14 08:42:16;;;;;;;7.68;2.90;;;8.20;99.90;;;;;;5089989;28;20103;-71
2024/02/14 08:44:41;;;;;;;5.63;2.70;;;8.40;99.90;;;;;;5085778;28;20032;-70
2024/02/14 08:47:08;;;;;;;4.95;2.63;;;8.50;99.90;;;;;;5084170;28;20465;-71
2024/02/14 08:49:34;;;;;;;5.43;2.60;;;8.70;99.90;;;;;;5092509;28;20020;-70
2024/02/14 08:51:59;;;;;;;5.85;2.25;;;8.90;99.90;;;;;;5084628;28;20032;-70
2024/02/14 08:54:28;;;;;;;4.97;2.42;;;9.20;99.90;;;;;;5087409;28;20044;-72
2024/02/14 08:56:55;;;;;;;4.05;2.10;;;9.40;99.90;;;;;;5094034;28;20101;-71
2024/02/14 08:59:21;;;;;;;5.70;2.17;;;9.60;99.90;;;;;;5086214;28;20081;-71
2024/02/14 09:01:48;;;;;;;6.68;2.38;;;9.70;99.90;;;;;;5066528;28;20032;-72
2024/02/14 09:04:14;;;;;;;6.20;2.42;;;9.90;99.90;;;;;;5079098;28;20188;-70
2024/02/14 09:06:40;;;;;;;7.20;2.80;;;10.20;99.90;;;;;;5093014;28;20088;-70
2024/02/14 09:09:07;;;;;;;5.70;2.92;;;10.40;99.90;;;;;;5079026;28;20020;-70
2024/02/14 09:11:32;;;;;;;9.93;4.40;;;10.50;99.90;;;;;;5087124;28;20073;-70
2024/02/14 09:14:04;;;;;;;12.60;5.13;;;10.60;99.90;;;;;;5088833;28;20373;-70
2024/02/14 09:16:30;;;;;;;11.90;5.05;;;10.60;99.90;;;;;;5092718;28;20107;-69
2024/02/14 09:18:56;;;;;;;10.93;4.47;;;10.50;99.90;;;;;;5079000;28;20036;-69
2024/02/14 09:21:22;;;;;;;11.30;4.78;;;10.50;99.90;;;;;;5098243;28;20036;-71
2024/02/14 09:23:48;;;;;;;9.80;4.57;;;10.40;99.90;;;;;;5093798;28;20134;-70
2024/02/14 09:26:13;;;;;;;12.65;5.00;;;10.30;99.90;;;;;;5095710;28;20492;-70
2024/02/14 09:28:43;;;;;;;10.57;4.45;;;10.30;99.90;;;;;;5105219;28;20027;-70
2024/02/14 09:31:12;;;;;;;11.02;4.45;;;10.20;99.90;;;;;;5097726;27;20029;-70
2024/02/14 09:33:38;;;;;;;10.35;3.92;;;10.20;99.90;;;;;;5104373;28;20039;-70
2024/02/14 09:36:04;;;;;;;8.77;4.07;;;10.10;99.90;;;;;;5109115;28;20024;-70
2024/02/14 09:38:30;;;;;;;5.57;2.13;;;10.20;99.90;;;;;;5109496;28;20055;-70
2024/02/14 09:41:15;;;;;;;4.35;1.40;;;10.30;99.90;;;;;;5107087;28;20058;-70
2024/02/14 09:43:44;;;;;;;2.60;1.20;;;10.60;99.90;;;;;;5081448;28;20353;-70
2024/02/14 09:46:12;;;;;;;3.30;1.45;;;;;;;;;;5105124;28;20434;-70
2024/02/14 09:48:38;;;;;;;6.97;1.70;;;11.10;99.90;;;;;;5102278;28;20031;-70
2024/02/14 09:51:04;;;;;;;5.40;1.38;;;11.10;99.90;;;;;;5097262;27;20028;-70
2024/02/14 09:53:32;;;;;;;4.85;1.35;;;11.20;99.90;;;;;;5108219;28;20028;-70
2024/02/14 09:56:01;;;;;;;2.67;1.20;;;11.20;99.90;;;;;;5099075;28;20019;-70
2024/02/14 09:58:28;;;;;;;5.55;1.65;;;11.30;99.90;;;;;;5104002;28;20329;-70
2024/02/14 10:00:53;;;;;;;2.58;1.15;;;11.30;99.90;;;;;;5104478;28;20058;-70
2024/02/14 10:03:19;;;;;;;4.40;1.50;;;11.40;99.90;;;;;;5092480;28;20063;-71
2024/02/14 10:05:44;;;;;;;7.57;1.58;;;11.30;99.90;;;;;;5094223;28;20044;-70
2024/02/14 10:08:11;;;;;;;3.00;1.10;;;11.30;99.90;;;;;;5105812;28;20027;-70
2024/02/14 10:10:37;;;;;;;6.47;1.38;;;11.30;99.90;;;;;;5103242;28;20104;-70
2024/02/14 10:13:06;;;;;;;3.03;1.15;;;11.40;99.90;;;;;;5096452;28;20055;-70
2024/02/14 10:15:33;;;;;;;3.25;1.20;;;11.50;99.90;;;;;;5093976;28;20067;-70
2024/02/14 10:17:59;;;;;;;2.22;1.10;;;11.60;99.90;;;;;;5107939;27;20534;-70
2024/02/14 10:20:26;;;;;;;2.10;1.15;;;11.70;99.90;;;;;;5108520;27;20028;-70
2024/02/14 10:23:00;;;;;;;1.83;1.30;;;11.70;99.90;;;;;;5106849;27;20024;-70
2024/02/14 10:25:26;;;;;;;1.88;1.02;;;11.80;99.90;;;;;;5107623;27;20565;-70
2024/02/14 10:27:51;;;;;;;1.15;0.80;;;11.80;99.90;;;;;;5102611;28;20063;-71
2024/02/14 10:30:17;;;;;;;2.80;1.30;;;11.80;99.90;;;;;;5106868;28;20055;-69
2024/02/14 10:32:48;;;;;;;3.55;0.80;;;11.70;99.90;;;;;;5093676;28;20027;-71
2024/02/14 10:35:14;;;;;;;4.47;1.13;;;11.80;99.90;;;;;;5096304;28;20031;-70
2024/02/14 10:37:40;;;;;;;12.27;1.85;;;11.90;99.90;;;;;;5102305;28;20024;-71
2024/02/14 10:40:07;;;;;;;3.28;1.20;;;12.00;99.90;;;;;;5097642;27;20172;-71
2024/02/14 10:42:33;;;;;;;5.28;1.10;;;12.20;99.90;;;;;;5113339;27;20050;-71
2024/02/14 10:44:59;;;;;;;2.60;1.38;;;12.20;99.90;;;;;;5111715;27;20058;-70
2024/02/14 10:47:31;;;;;;;3.47;1.17;;;12.30;99.90;;;;;;5106894;28;20119;-70
2024/02/14 10:50:05;;;;;;;1.65;1.02;;;12.30;99.90;;;;;;5102505;28;20038;-70
2024/02/14 10:52:33;;;;;;;4.20;1.05;;;12.50;99.90;;;;;;5100001;28;20062;-71
2024/02/14 10:55:02;;;;;;;6.68;1.20;;;12.70;99.90;;;;;;5107701;28;20424;-70
2024/02/14 10:57:29;;;;;;;2.72;0.93;;;12.80;99.90;;;;;;5101048;28;20024;-71
2024/02/14 10:59:57;;;;;;;2.33;1.00;;;12.90;99.90;;;;;;5107961;28;20020;-71
2024/02/14 11:02:24;;;;;;;4.40;1.20;;;13.00;99.90;;;;;;5110895;28;20023;-71
2024/02/14 11:04:53;;;;;;;1.73;0.77;;;13.20;99.90;;;;;;5100082;28;20032;-71
2024/02/14 11:07:22;;;;;;;3.30;1.50;;;13.30;99.90;;;;;;5095175;28;20047;-70
2024/02/14 11:10:00;;;;;;;4.28;1.00;;;13.50;99.90;;;;;;5105690;28;20170;-71
2024/02/14 11:12:26;;;;;;;3.28;1.10;;;13.60;99.90;;;;;;5106948;28;20469;-71
2024/02/14 11:15:00;;;;;;;0.90;0.82;;;14.10;99.90;;;;;;5109969;28;20023;-71
2024/02/14 11:17:27;;;;;;;1.33;0.70;;;14.30;99.90;;;;;;5098415;28;20024;-71
2024/02/14 11:19:53;;;;;;;4.03;1.20;;;14.30;99.90;;;;;;5111167;28;20098;-71
2024/02/14 11:22:20;;;;;;;3.85;1.15;;;14.30;99.90;;;;;;5105054;28;20111;-73
2024/02/14 11:24:49;;;;;;;4.90;1.10;;;14.30;99.90;;;;;;5118470;27;20076;-71
2024/02/14 11:27:20;;;;;;;1.95;0.95;;;14.20;99.90;;;;;;5098505;28;20058;-72
2024/02/14 11:29:53;;;;;;;1.70;0.65;;;14.10;99.90;;;;;;5097985;28;20024;-72
2024/02/14 11:32:19;;;;;;;4.05;1.10;;;14.10;99.90;;;;;;5099706;28;20484;-71
2024/02/14 11:34:56;;;;;;;2.00;1.20;;;14.00;99.90;;;;;;5088184;28;20030;-70
2024/02/14 11:37:28;;;;;;;2.17;0.70;;;13.90;99.90;;;;;;5110854;28;20087;-70
2024/02/14 11:39:53;;;;;;;3.55;0.82;;;13.90;99.90;;;;;;5109804;28;20066;-70
2024/02/14 11:42:21;;;;;;;1.75;0.70;;;13.80;99.90;;;;;;5097471;28;20369;-70
2024/02/14 11:44:47;;;;;;;2.10;0.60;;;13.90;99.90;;;;;;5100250;28;20040;-71
2024/02/14 11:47:13;;;;;;;1.98;0.88;;;13.90;99.90;;;;;;5110630;28;20329;-71
2024/02/14 11:49:39;;;;;;;1.42;0.88;;;13.90;99.90;;;;;;5109225;28;20073;-72
2024/02/14 11:52:09;;;;;;;5.70;0.90;;;13.90;99.90;;;;;;5097364;28;20028;-71
2024/02/14 11:54:35;;;;;;;2.07;1.20;;;13.80;99.90;;;;;;5109988;28;20053;-69
2024/02/14 11:57:00;;;;;;;1.60;0.80;;;13.80;99.90;;;;;;5110763;28;20341;-72
2024/02/14 11:59:26;;;;;;;3.40;1.30;;;13.80;99.90;;;;;;5104295;28;20047;-71
2024/02/14 12:01:53;;;;;;;3.80;1.02;;;13.90;99.90;;;;;;5107922;28;20028;-69
2024/02/14 12:04:19;;;;;;;1.73;0.82;;;13.90;99.90;;;;;;5110390;28;20031;-70
2024/02/14 12:06:45;;;;;;;1.33;0.80;;;14.00;99.90;;;;;;5100659;28;20028;-71
2024/02/14 12:09:12;;;;;;;3.30;0.80;;;14.00;99.90;;;;;;5093769;28;20616;-71
2024/02/14 12:11:43;;;;;;;1.90;0.82;;;14.00;99.90;;;;;;5104044;28;20124;-72
2024/02/14 12:14:09;;;;;;;3.13;0.70;;;13.90;99.90;;;;;;5103789;28;20028;-71
2024/02/14 12:16:36;;;;;;;1.98;0.90;;;13.90;99.90;;;;;;5107104;28;20024;-72
2024/02/14 12:19:15;;;;;;;1.83;0.60;;;14.00;99.90;;;;;;5104505;28;20028;-71
2024/02/14 12:21:41;;;;;;;2.30;0.57;;;13.90;99.90;;;;;;5108186;28;20461;-71
2024/02/14 12:24:08;;;;;;;2.58;0.70;;;14.00;99.90;;;;;;5108868;28;20042;-71
2024/02/14 12:26:36;;;;;;;1.58;0.90;;;14.10;99.90;;;;;;5093881;28;20043;-71
2024/02/14 12:29:10;;;;;;;0.93;0.70;;;14.30;99.90;;;;;;5093512;28;20123;-72
2024/02/14 12:31:36;;;;;;;3.20;0.60;;;14.50;99.90;;;;;;5093788;28;20059;-70
2024/02/14 12:34:04;;;;;;;1.55;0.55;;;14.70;99.90;;;;;;5093784;28;20058;-72
2024/02/14 12:36:30;;;;;;;1.00;0.50;;;14.70;99.90;;;;;;5093790;28;20054;-72
2024/02/14 12:38:56;;;;;;;0.90;0.75;;;14.60;99.90;;;;;;5071475;28;20028;-71
2024/02/14 12:41:23;;;;;;;1.75;0.65;;;14.50;99.90;;;;;;5093476;28;20048;-70
2024/02/14 12:43:49;;;;;;;1.75;0.77;;;14.60;99.90;;;;;;5092807;28;20030;-71
2024/02/14 12:46:15;;;;;;;0.65;0.40;;;14.50;99.90;;;;;;5094004;28;20025;-71
2024/02/14 12:48:41;;;;;;;2.88;0.73;;;14.50;99.90;;;;;;5092707;28;20070;-71
2024/02/14 12:51:08;;;;;;;1.00;0.52;;;14.70;99.90;;;;;;5087096;28;20032;-72